createdAt,value
2023-12-09T00:01:45.005Z,6.30
2023-12-09T00:04:11.812Z,4.33
2023-12-09T00:06:38.715Z,5.70
2023-12-09T00:09:05.541Z,4.20
2023-12-09T00:11:32.222Z,4.53
2023-12-09T00:14:05.354Z,4.87
2023-12-09T00:16:32.266Z,5.80
2023-12-09T00:19:00.246Z,4.50
2023-12-09T00:21:27.886Z,6.20
2023-12-09T00:23:54.562Z,5.57
2023-12-09T00:26:21.169Z,6.10
2023-12-09T00:28:48.063Z,5.60
2023-12-09T00:31:14.758Z,7.27
2023-12-09T00:33:42.130Z,5.30
2023-12-09T00:36:09.327Z,5.70
2023-12-09T00:38:36.107Z,6.07
2023-12-09T00:41:02.742Z,5.27
2023-12-09T00:43:29.395Z,5.13
2023-12-09T00:45:56.026Z,5.60
2023-12-09T00:48:23.510Z,5.60
2023-12-09T00:50:50.365Z,6.70
2023-12-09T00:53:17.036Z,6.00
2023-12-09T00:55:43.913Z,6.30
2023-12-09T00:58:10.723Z,6.97
2023-12-09T01:00:37.526Z,6.13
2023-12-09T01:03:04.427Z,5.80
2023-12-09T01:05:31.178Z,5.20
2023-12-09T01:07:57.907Z,6.53
2023-12-09T01:10:24.794Z,6.03
2023-12-09T01:12:51.487Z,5.90
2023-12-09T01:15:18.416Z,6.50
2023-12-09T01:17:45.107Z,6.43
2023-12-09T01:20:12.661Z,6.27
2023-12-09T01:22:40.132Z,5.70
2023-12-09T01:25:07.585Z,5.50
2023-12-09T01:27:34.342Z,6.50
2023-12-09T01:30:01.064Z,6.00
2023-12-09T01:32:28.043Z,6.43
2023-12-09T01:34:54.820Z,6.07
2023-12-09T01:37:21.496Z,5.87
2023-12-09T01:39:48.138Z,4.90
2023-12-09T01:42:15.150Z,5.87
2023-12-09T01:44:41.787Z,5.50
2023-12-09T01:47:08.744Z,5.60
2023-12-09T01:49:35.669Z,6.80
2023-12-09T01:52:02.981Z,5.03
2023-12-09T01:54:29.818Z,6.80
2023-12-09T01:56:57.326Z,6.20
2023-12-09T01:59:24.001Z,6.03
2023-12-09T02:01:52.679Z,8.33
2023-12-09T02:04:20.383Z,6.17
2023-12-09T02:06:47.136Z,6.23
2023-12-09T02:09:13.854Z,6.00
2023-12-09T02:11:52.645Z,6.23
2023-12-09T02:14:36.215Z,5.17
2023-12-09T02:17:12.898Z,5.97
2023-12-09T02:19:39.646Z,5.80
2023-12-09T02:22:10.595Z,7.80
2023-12-09T02:24:37.562Z,8.73
2023-12-09T02:27:13.403Z,8.40
2023-12-09T02:29:51.792Z,6.10
2023-12-09T02:32:21.631Z,6.33
2023-12-09T02:34:49.282Z,7.67
2023-12-09T02:37:16.598Z,7.20
2023-12-09T02:39:43.656Z,6.43
2023-12-09T02:42:10.925Z,7.00
2023-12-09T02:44:38.287Z,8.00
2023-12-09T02:47:04.973Z,6.37
2023-12-09T02:49:31.623Z,7.40
2023-12-09T02:51:58.260Z,7.83
2023-12-09T02:54:25.183Z,7.47
2023-12-09T02:56:51.914Z,7.30
2023-12-09T02:59:18.566Z,6.70
2023-12-09T03:01:45.229Z,7.47
2023-12-09T03:04:11.989Z,6.23
2023-12-09T03:06:38.688Z,8.70
2023-12-09T03:09:05.422Z,8.17
2023-12-09T03:11:32.066Z,6.80
2023-12-09T03:13:58.697Z,7.30
2023-12-09T03:16:25.420Z,7.60
2023-12-09T03:18:52.408Z,6.60
2023-12-09T03:21:19.164Z,8.03
2023-12-09T03:23:46.055Z,6.80
2023-12-09T03:26:20.105Z,6.27
2023-12-09T03:28:47.028Z,6.03
2023-12-09T03:31:15.444Z,6.30
2023-12-09T03:33:43.171Z,7.17
2023-12-09T03:36:10.885Z,5.77
2023-12-09T03:38:37.503Z,8.40
2023-12-09T03:41:05.791Z,7.07
2023-12-09T03:43:33.065Z,6.10
2023-12-09T03:46:00.292Z,7.70
2023-12-09T03:48:29.798Z,6.90
2023-12-09T03:50:56.840Z,7.47
2023-12-09T03:53:23.652Z,6.43
2023-12-09T03:55:52.002Z,5.57
2023-12-09T03:58:19.057Z,7.77
2023-12-09T04:00:46.215Z,7.80
2023-12-09T04:03:13.197Z,5.57
2023-12-09T04:05:41.211Z,7.40
2023-12-09T04:08:08.187Z,7.40
2023-12-09T04:10:34.891Z,7.80
2023-12-09T04:13:01.505Z,7.60
2023-12-09T04:15:31.044Z,7.40
2023-12-09T04:17:57.866Z,7.47
2023-12-09T04:20:24.919Z,6.73
2023-12-09T04:22:51.682Z,6.70
2023-12-09T04:25:18.327Z,7.83
2023-12-09T04:27:45.101Z,6.93
2023-12-09T04:30:13.094Z,6.07
2023-12-09T04:32:40.827Z,6.17
2023-12-09T04:35:09.542Z,5.97
2023-12-09T04:37:36.261Z,6.10
2023-12-09T04:40:06.060Z,6.97
2023-12-09T04:42:32.684Z,6.37
2023-12-09T04:44:59.403Z,5.63
2023-12-09T04:47:26.260Z,6.07
2023-12-09T04:49:52.953Z,5.80
2023-12-09T04:52:19.523Z,6.60
2023-12-09T04:54:46.151Z,6.90
2023-12-09T04:57:12.909Z,5.40
2023-12-09T04:59:39.507Z,7.63
2023-12-09T05:02:06.134Z,6.00
2023-12-09T05:04:32.721Z,6.13
2023-12-09T05:06:59.393Z,7.00
2023-12-09T05:09:26.318Z,6.70
2023-12-09T05:11:53.054Z,5.70
2023-12-09T05:14:19.739Z,7.00
2023-12-09T05:16:46.420Z,6.50
2023-12-09T05:19:13.218Z,5.90
2023-12-09T05:21:39.907Z,6.73
2023-12-09T05:24:06.678Z,6.03
2023-12-09T05:26:34.602Z,5.67
2023-12-09T05:29:01.206Z,8.33
2023-12-09T05:31:27.901Z,6.23
2023-12-09T05:33:55.604Z,6.80
2023-12-09T05:36:22.455Z,6.37
2023-12-09T05:38:49.223Z,6.13
2023-12-09T05:41:16.325Z,6.40
2023-12-09T05:43:45.816Z,7.00
2023-12-09T05:46:20.354Z,6.50
2023-12-09T05:48:47.812Z,5.00
2023-12-09T05:51:14.565Z,6.70
2023-12-09T05:53:41.747Z,8.10
2023-12-09T05:56:13.091Z,5.50
2023-12-09T05:58:42.868Z,6.33
2023-12-09T06:01:09.864Z,6.10
2023-12-09T06:03:36.704Z,6.30
2023-12-09T06:06:04.884Z,6.30
2023-12-09T06:08:31.715Z,5.93
2023-12-09T06:10:58.795Z,6.97
2023-12-09T06:13:25.499Z,6.80
2023-12-09T06:15:52.148Z,7.40
2023-12-09T06:18:18.902Z,7.30
2023-12-09T06:20:46.140Z,8.73
2023-12-09T06:23:12.887Z,6.90
2023-12-09T06:25:39.542Z,7.00
2023-12-09T06:28:06.158Z,6.73
2023-12-09T06:30:34.687Z,6.57
2023-12-09T06:33:02.041Z,7.10
2023-12-09T06:35:29.084Z,8.30
2023-12-09T06:37:56.147Z,6.30
2023-12-09T06:40:24.479Z,8.40
2023-12-09T06:42:51.065Z,6.87
2023-12-09T06:45:18.334Z,9.30
2023-12-09T06:47:45.212Z,9.07
2023-12-09T06:50:12.354Z,8.77
2023-12-09T06:52:40.534Z,10.30
2023-12-09T06:55:08.068Z,8.77
2023-12-09T06:57:35.921Z,9.30
2023-12-09T07:00:08.513Z,8.27
2023-12-09T07:02:44.781Z,8.13
2023-12-09T07:05:19.850Z,8.87
2023-12-09T07:07:46.907Z,7.93
2023-12-09T07:10:13.780Z,7.30
2023-12-09T07:12:40.665Z,7.77
2023-12-09T07:15:09.653Z,8.37
2023-12-09T07:17:36.658Z,7.07
2023-12-09T07:20:07.087Z,7.77
2023-12-09T07:22:33.780Z,6.83
2023-12-09T07:25:00.393Z,9.77
2023-12-09T07:27:27.059Z,9.10
2023-12-09T07:29:53.710Z,9.00
2023-12-09T07:32:20.416Z,9.20
2023-12-09T07:34:47.220Z,8.07
2023-12-09T07:37:16.176Z,8.90
2023-12-09T07:39:43.499Z,9.00
2023-12-09T07:42:10.477Z,7.30
2023-12-09T07:44:37.180Z,7.77
2023-12-09T07:47:05.074Z,7.03
2023-12-09T07:49:32.115Z,8.00
2023-12-09T07:51:58.822Z,8.00
2023-12-09T07:54:25.586Z,9.90
2023-12-09T07:56:52.319Z,12.23
2023-12-09T07:59:21.408Z,11.70
2023-12-09T08:01:48.075Z,12.00
2023-12-09T08:04:14.927Z,9.40
2023-12-09T08:06:41.708Z,8.97
2023-12-09T08:09:08.592Z,7.70
2023-12-09T08:11:35.350Z,8.10
2023-12-09T08:14:02.215Z,7.97
2023-12-09T08:16:28.880Z,9.27
2023-12-09T08:18:55.646Z,8.63
2023-12-09T08:21:22.706Z,10.33
2023-12-09T08:23:50.361Z,10.00
2023-12-09T08:26:19.324Z,8.97
2023-12-09T08:28:46.562Z,9.93
2023-12-09T08:31:13.410Z,7.73
2023-12-09T08:33:41.328Z,9.20
2023-12-09T08:36:08.603Z,8.20
2023-12-09T08:38:35.565Z,9.10
2023-12-09T08:41:02.195Z,9.57
2023-12-09T08:43:28.835Z,10.73
2023-12-09T08:45:55.387Z,10.70
2023-12-09T08:48:22.036Z,10.23
2023-12-09T08:50:49.062Z,9.00
2023-12-09T08:53:15.732Z,6.87
2023-12-09T08:55:42.639Z,7.70
2023-12-09T08:58:09.487Z,8.47
2023-12-09T09:00:36.287Z,7.20
2023-12-09T09:03:04.781Z,8.23
2023-12-09T09:05:31.621Z,7.53
2023-12-09T09:07:58.340Z,9.43
2023-12-09T09:10:24.962Z,9.70
2023-12-09T09:12:51.637Z,7.53
2023-12-09T09:15:18.654Z,8.70
2023-12-09T09:17:45.368Z,9.43
2023-12-09T09:20:12.180Z,9.23
2023-12-09T09:22:39.161Z,8.67
2023-12-09T09:25:06.106Z,8.33
2023-12-09T09:27:32.785Z,8.40
2023-12-09T09:29:59.643Z,9.40
2023-12-09T09:32:26.783Z,8.57
2023-12-09T09:34:54.104Z,31.70
2023-12-09T09:37:22.000Z,20.77
2023-12-09T09:39:49.576Z,21.47
2023-12-09T09:42:21.075Z,26.27
2023-12-09T09:45:19.990Z,15.23
2023-12-09T09:47:49.534Z,8.90
2023-12-09T09:50:27.028Z,8.97
2023-12-09T09:52:54.671Z,14.43
2023-12-09T09:55:22.588Z,20.60
2023-12-09T09:57:50.244Z,13.43
2023-12-09T10:00:18.795Z,12.80
2023-12-09T10:02:47.236Z,11.30
2023-12-09T10:05:17.220Z,18.40
2023-12-09T10:07:45.265Z,9.30
2023-12-09T10:10:14.459Z,23.27
2023-12-09T10:12:41.471Z,32.50
2023-12-09T10:15:09.132Z,16.53
2023-12-09T10:17:36.838Z,16.10
2023-12-09T10:20:07.095Z,9.20
2023-12-09T10:22:33.916Z,9.70
2023-12-09T10:25:00.682Z,10.30
2023-12-09T10:27:27.543Z,6.83
2023-12-09T10:29:55.965Z,6.67
2023-12-09T10:32:23.247Z,8.00
2023-12-09T10:34:50.345Z,6.10
2023-12-09T10:37:18.532Z,6.00
2023-12-09T10:39:46.241Z,7.40
2023-12-09T10:42:13.570Z,6.50
2023-12-09T10:44:43.699Z,6.77
2023-12-09T10:47:10.472Z,5.40
2023-12-09T10:49:38.014Z,6.10
2023-12-09T10:52:05.501Z,6.93
2023-12-09T10:54:32.658Z,7.23
2023-12-09T10:56:59.972Z,8.97
2023-12-09T10:59:28.530Z,7.90
2023-12-09T11:01:55.593Z,7.90
2023-12-09T11:04:22.725Z,8.33
2023-12-09T11:06:50.833Z,8.60
2023-12-09T11:09:17.880Z,11.43
2023-12-09T11:11:44.521Z,8.60
2023-12-09T11:14:11.406Z,6.80
2023-12-09T11:16:43.476Z,8.60
2023-12-09T11:19:19.735Z,30.17
2023-12-09T11:21:47.555Z,21.23
2023-12-09T11:24:15.625Z,19.33
2023-12-09T11:26:48.148Z,16.10
2023-12-09T11:29:19.476Z,9.93
2023-12-09T11:31:51.464Z,9.57
2023-12-09T11:34:22.811Z,8.43
2023-12-09T11:36:53.635Z,6.97
2023-12-09T11:39:23.371Z,6.80
2023-12-09T11:41:50.980Z,6.00
2023-12-09T11:44:18.041Z,7.07
2023-12-09T11:46:45.003Z,5.73
2023-12-09T11:49:12.011Z,6.60
2023-12-09T11:51:40.271Z,6.47
2023-12-09T11:54:09.078Z,5.43
2023-12-09T11:56:36.763Z,6.37
2023-12-09T11:59:03.647Z,6.07
2023-12-09T12:01:33.466Z,5.50
2023-12-09T12:04:00.558Z,5.97
2023-12-09T12:06:27.326Z,6.03
2023-12-09T12:08:55.555Z,6.07
2023-12-09T12:11:23.387Z,6.50
2023-12-09T12:13:50.199Z,5.70
2023-12-09T12:16:17.027Z,5.80
2023-12-09T12:18:44.946Z,5.70
2023-12-09T12:21:11.735Z,4.77
2023-12-09T12:23:40.061Z,6.70
2023-12-09T12:26:07.071Z,6.77
2023-12-09T12:28:33.722Z,4.87
2023-12-09T12:31:01.216Z,6.30
2023-12-09T12:33:32.832Z,5.20
2023-12-09T12:36:00.375Z,6.83
2023-12-09T12:38:27.650Z,5.60
2023-12-09T12:40:55.842Z,6.20
2023-12-09T12:43:23.005Z,6.30
2023-12-09T12:45:50.728Z,5.37
2023-12-09T12:48:18.569Z,3.60
2023-12-09T12:50:51.285Z,5.37
2023-12-09T12:53:21.760Z,4.73
2023-12-09T12:55:49.161Z,5.23
2023-12-09T12:58:16.863Z,5.67
2023-12-09T13:00:43.664Z,5.60
2023-12-09T13:03:10.863Z,5.67
2023-12-09T13:05:37.758Z,6.20
2023-12-09T13:08:05.821Z,5.77
2023-12-09T13:10:33.195Z,4.63
2023-12-09T13:13:00.104Z,6.00
2023-12-09T13:15:26.929Z,5.27
2023-12-09T13:17:53.900Z,4.40
2023-12-09T13:20:20.725Z,4.97
2023-12-09T13:22:47.460Z,5.73
2023-12-09T13:25:15.470Z,4.60
2023-12-09T13:27:43.693Z,6.83
2023-12-09T13:30:11.068Z,5.73
2023-12-09T13:32:38.832Z,7.50
2023-12-09T13:35:06.937Z,7.07
2023-12-09T13:37:34.218Z,5.77
2023-12-09T13:40:01.662Z,5.90
2023-12-09T13:42:29.296Z,5.20
2023-12-09T13:44:56.276Z,4.77
2023-12-09T13:47:23.912Z,6.83
2023-12-09T13:49:50.914Z,4.90
2023-12-09T13:52:18.360Z,5.60
2023-12-09T13:54:45.364Z,5.40
2023-12-09T13:57:12.151Z,5.40
2023-12-09T13:59:38.890Z,5.43
2023-12-09T14:02:07.119Z,5.63
2023-12-09T14:04:34.175Z,4.90
2023-12-09T14:07:00.939Z,5.50
2023-12-09T14:09:27.657Z,4.87
2023-12-09T14:11:54.424Z,4.90
2023-12-09T14:14:21.333Z,6.30
2023-12-09T14:16:48.128Z,5.63
2023-12-09T14:19:15.016Z,5.47
2023-12-09T14:21:41.741Z,6.67
2023-12-09T14:24:09.860Z,4.80
2023-12-09T14:26:37.024Z,5.30
2023-12-09T14:29:03.755Z,5.50
2023-12-09T14:31:30.434Z,5.13
2023-12-09T14:33:57.537Z,6.07
2023-12-09T14:36:24.459Z,7.10
2023-12-09T14:38:51.350Z,6.97
2023-12-09T14:41:18.199Z,6.80
2023-12-09T14:43:47.076Z,6.80
2023-12-09T14:46:15.370Z,5.80
2023-12-09T14:48:43.060Z,7.47
2023-12-09T14:51:10.355Z,6.30
2023-12-09T14:53:37.178Z,5.77
2023-12-09T14:56:04.148Z,5.73
2023-12-09T14:58:31.174Z,5.67
2023-12-09T15:00:58.015Z,6.00
2023-12-09T15:03:24.901Z,4.93
2023-12-09T15:05:51.486Z,4.53
2023-12-09T15:08:18.177Z,5.40
2023-12-09T15:10:44.809Z,5.47
2023-12-09T15:13:11.391Z,4.57
2023-12-09T15:15:38.044Z,4.77
2023-12-09T15:18:05.816Z,5.70
2023-12-09T15:20:32.852Z,4.50
2023-12-09T15:22:59.773Z,5.80
2023-12-09T15:25:28.142Z,4.90
2023-12-09T15:27:54.943Z,4.70
2023-12-09T15:30:21.917Z,5.50
2023-12-09T15:32:48.900Z,5.67
2023-12-09T15:35:15.744Z,5.80
2023-12-09T15:37:43.773Z,9.00
2023-12-09T15:40:12.017Z,5.70
2023-12-09T15:42:39.136Z,6.70
2023-12-09T15:45:06.459Z,6.10
2023-12-09T15:47:33.327Z,5.20
2023-12-09T15:50:00.340Z,5.13
2023-12-09T15:52:27.431Z,5.87
2023-12-09T15:54:54.312Z,5.30
2023-12-09T15:57:21.223Z,6.50
2023-12-09T15:59:48.210Z,6.73
2023-12-09T16:02:15.288Z,6.83
2023-12-09T16:04:42.545Z,5.93
2023-12-09T16:07:09.404Z,6.10
2023-12-09T16:09:41.078Z,6.17
2023-12-09T16:12:11.446Z,6.80
2023-12-09T16:14:38.301Z,6.80
2023-12-09T16:17:05.198Z,6.10
2023-12-09T16:19:31.926Z,7.43
2023-12-09T16:21:58.667Z,6.67
2023-12-09T16:24:28.683Z,6.37
2023-12-09T16:26:59.443Z,5.30
2023-12-09T16:29:27.325Z,6.80
2023-12-09T16:31:54.098Z,5.90
2023-12-09T16:34:20.974Z,6.23
2023-12-09T16:36:49.037Z,6.90
2023-12-09T16:39:16.673Z,5.40
2023-12-09T16:41:43.326Z,7.03
2023-12-09T16:44:11.664Z,6.93
2023-12-09T16:46:39.337Z,6.30
2023-12-09T16:49:09.230Z,6.50
2023-12-09T16:51:36.396Z,6.13
2023-12-09T16:54:03.336Z,8.53
2023-12-09T16:56:31.017Z,6.83
2023-12-09T16:58:58.190Z,5.53
2023-12-09T17:01:25.672Z,6.10
2023-12-09T17:03:52.539Z,4.87
2023-12-09T17:06:19.304Z,6.03
2023-12-09T17:08:46.194Z,6.47
2023-12-09T17:11:13.207Z,5.43
2023-12-09T17:13:39.867Z,6.40
2023-12-09T17:16:06.891Z,5.33
2023-12-09T17:18:33.740Z,4.83
2023-12-09T17:21:00.382Z,6.50
2023-12-09T17:23:28.826Z,5.60
2023-12-09T17:25:55.748Z,4.97
2023-12-09T17:28:22.650Z,7.13
2023-12-09T17:30:50.953Z,6.03
2023-12-09T17:33:18.422Z,6.40
2023-12-09T17:35:45.389Z,5.57
2023-12-09T17:38:12.099Z,4.30
2023-12-09T17:40:39.856Z,5.80
2023-12-09T17:43:07.790Z,5.20
2023-12-09T17:45:34.846Z,5.10
2023-12-09T17:48:01.670Z,5.57
2023-12-09T17:50:28.278Z,5.43
2023-12-09T17:52:54.992Z,4.87
2023-12-09T17:55:21.651Z,5.80
2023-12-09T17:57:48.401Z,5.23
2023-12-09T18:00:15.409Z,4.60
2023-12-09T18:02:42.334Z,5.53
2023-12-09T18:05:09.854Z,5.20
2023-12-09T18:07:37.028Z,3.73
2023-12-09T18:10:03.986Z,7.03
2023-12-09T18:12:30.833Z,3.90
2023-12-09T18:14:57.773Z,6.10
2023-12-09T18:17:24.687Z,6.03
2023-12-09T18:19:51.402Z,4.77
2023-12-09T18:22:21.452Z,3.73
2023-12-09T18:24:49.245Z,4.30
2023-12-09T18:27:16.250Z,4.50
2023-12-09T18:29:44.157Z,6.70
2023-12-09T18:32:16.341Z,4.47
2023-12-09T18:34:43.570Z,6.50
2023-12-09T18:37:11.742Z,4.30
2023-12-09T18:39:38.719Z,5.00
2023-12-09T18:42:05.884Z,5.93
2023-12-09T18:44:32.609Z,4.70
2023-12-09T18:46:59.204Z,6.27
2023-12-09T18:49:25.889Z,4.60
2023-12-09T18:51:52.561Z,4.27
2023-12-09T18:54:19.221Z,5.07
2023-12-09T18:56:45.905Z,4.97
2023-12-09T18:59:15.313Z,4.43
2023-12-09T19:01:43.590Z,6.43
2023-12-09T19:04:10.588Z,4.70
2023-12-09T19:06:45.684Z,5.37
2023-12-09T19:09:20.197Z,5.27
2023-12-09T19:11:46.777Z,4.33
2023-12-09T19:14:13.711Z,3.00
2023-12-09T19:16:41.512Z,5.87
2023-12-09T19:19:08.354Z,5.20
2023-12-09T19:21:38.711Z,3.83
2023-12-09T19:24:06.013Z,4.43
2023-12-09T19:26:33.775Z,3.80
2023-12-09T19:29:02.537Z,6.77
2023-12-09T19:31:29.685Z,4.00
2023-12-09T19:33:56.429Z,4.40
2023-12-09T19:36:23.128Z,6.20
2023-12-09T19:38:49.875Z,4.07
2023-12-09T19:41:16.934Z,4.60
2023-12-09T19:43:43.583Z,5.43
2023-12-09T19:46:10.279Z,4.07
2023-12-09T19:48:39.615Z,4.47
2023-12-09T19:51:06.593Z,4.57
2023-12-09T19:53:33.513Z,3.40
2023-12-09T19:56:00.596Z,5.53
2023-12-09T19:58:27.358Z,4.17
2023-12-09T20:00:54.213Z,3.70
2023-12-09T20:03:21.774Z,4.23
2023-12-09T20:05:48.475Z,4.50
2023-12-09T20:08:15.178Z,3.40
2023-12-09T20:10:43.029Z,5.60
2023-12-09T20:13:09.890Z,3.63
2023-12-09T20:15:36.581Z,3.53
2023-12-09T20:18:03.645Z,5.40
2023-12-09T20:20:30.714Z,4.17
2023-12-09T20:23:00.318Z,4.47
2023-12-09T20:25:27.141Z,4.67
2023-12-09T20:27:54.340Z,4.23
2023-12-09T20:30:21.134Z,4.67
2023-12-09T20:32:48.046Z,4.10
2023-12-09T20:35:14.788Z,5.10
2023-12-09T20:37:41.926Z,4.43
2023-12-09T20:40:08.955Z,4.80
2023-12-09T20:42:35.570Z,5.50
2023-12-09T20:45:03.983Z,5.00
2023-12-09T20:47:30.747Z,3.80
2023-12-09T20:49:57.585Z,4.43
2023-12-09T20:52:24.512Z,5.10
2023-12-09T20:54:51.482Z,4.13
2023-12-09T20:57:18.450Z,5.00
2023-12-09T20:59:45.475Z,4.70
2023-12-09T21:02:13.338Z,4.10
2023-12-09T21:04:48.777Z,5.83
2023-12-09T21:07:15.505Z,4.20
2023-12-09T21:09:42.195Z,5.73
2023-12-09T21:12:09.468Z,5.47
2023-12-09T21:14:36.104Z,5.90
2023-12-09T21:17:02.760Z,6.50
2023-12-09T21:19:35.255Z,4.33
2023-12-09T21:22:03.702Z,5.47
2023-12-09T21:24:30.774Z,4.10
2023-12-09T21:26:57.522Z,5.67
2023-12-09T21:29:24.187Z,5.30
2023-12-09T21:31:51.272Z,4.87
2023-12-09T21:34:18.845Z,4.13
2023-12-09T21:36:46.345Z,4.47
2023-12-09T21:39:13.267Z,4.60
2023-12-09T21:41:39.922Z,6.60
2023-12-09T21:44:06.548Z,4.90
2023-12-09T21:46:33.213Z,4.10
2023-12-09T21:49:00.238Z,5.63
2023-12-09T21:51:26.937Z,4.90
2023-12-09T21:53:53.711Z,3.77
2023-12-09T21:56:24.599Z,6.20
2023-12-09T21:58:51.865Z,4.70
2023-12-09T22:01:20.043Z,5.17
2023-12-09T22:03:47.330Z,5.30
2023-12-09T22:06:14.287Z,3.90
2023-12-09T22:08:42.605Z,6.30
2023-12-09T22:11:12.817Z,5.23
2023-12-09T22:13:40.743Z,5.07
2023-12-09T22:16:07.826Z,5.47
2023-12-09T22:18:34.704Z,4.10
2023-12-09T22:21:01.553Z,5.20
2023-12-09T22:23:28.496Z,4.77
2023-12-09T22:25:55.640Z,5.23
2023-12-09T22:28:22.672Z,5.73
2023-12-09T22:30:49.508Z,4.63
2023-12-09T22:33:16.346Z,4.23
2023-12-09T22:35:43.078Z,5.63
2023-12-09T22:38:09.722Z,5.47
2023-12-09T22:40:37.172Z,6.07
2023-12-09T22:43:03.960Z,6.07
2023-12-09T22:45:30.595Z,4.83
2023-12-09T22:47:57.830Z,5.30
2023-12-09T22:50:24.722Z,5.27
2023-12-09T22:52:51.499Z,3.80
2023-12-09T22:55:18.159Z,4.23
2023-12-09T22:57:45.032Z,5.47
2023-12-09T23:00:18.056Z,4.77
2023-12-09T23:02:44.761Z,5.70
2023-12-09T23:05:11.366Z,4.67
2023-12-09T23:07:38.092Z,4.37
2023-12-09T23:10:05.455Z,4.73
2023-12-09T23:12:32.370Z,4.47
2023-12-09T23:14:59.131Z,3.90
2023-12-09T23:17:26.007Z,5.00
2023-12-09T23:19:52.674Z,5.27
2023-12-09T23:22:19.284Z,4.50
2023-12-09T23:24:45.920Z,5.20
2023-12-09T23:27:12.547Z,5.30
2023-12-09T23:29:39.196Z,4.30
2023-12-09T23:32:06.038Z,4.47
2023-12-09T23:34:32.791Z,4.37
2023-12-09T23:36:59.538Z,3.97
2023-12-09T23:39:26.286Z,4.10
2023-12-09T23:41:52.992Z,4.10
2023-12-09T23:44:19.755Z,3.40
2023-12-09T23:46:46.645Z,4.57
2023-12-09T23:49:13.921Z,2.93
2023-12-09T23:51:40.605Z,5.73
2023-12-09T23:54:07.435Z,4.17
2023-12-09T23:56:34.142Z,3.10
2023-12-09T23:59:00.755Z,6.37
